sensor_id;sensor_type;location;lat;lon;timestamp;P1;durP1;ratioP1;P2;durP2;ratioP2
21202;SDS011;10759;51.982;9.232;2024-02-28T00:02:10;31.00;;;27.95;;
21202;SDS011;10759;51.982;9.232;2024-02-28T00:04:39;30.00;;;26.95;;
21202;SDS011;10759;51.982;9.232;2024-02-28T00:07:07;32.42;;;28.13;;
21202;SDS011;10759;51.982;9.232;2024-02-28T00:09:35;27.92;;;25.08;;
21202;SDS011;10759;51.982;9.232;2024-02-28T00:12:03;28.17;;;25.35;;
21202;SDS011;10759;51.982;9.232;2024-02-28T00:14:32;27.02;;;24.42;;
21202;SDS011;10759;51.982;9.232;2024-02-28T00:17:01;29.88;;;26.80;;
21202;SDS011;10759;51.982;9.232;2024-02-28T00:19:29;31.85;;;27.95;;
21202;SDS011;10759;51.982;9.232;2024-02-28T00:21:57;30.95;;;27.73;;
21202;SDS011;10759;51.982;9.232;2024-02-28T00:24:26;28.40;;;25.58;;
21202;SDS011;10759;51.982;9.232;2024-02-28T00:26:54;30.52;;;27.40;;
21202;SDS011;10759;51.982;9.232;2024-02-28T00:29:22;28.80;;;25.73;;
21202;SDS011;10759;51.982;9.232;2024-02-28T00:31:50;28.10;;;25.23;;
21202;SDS011;10759;51.982;9.232;2024-02-28T00:34:20;30.25;;;27.02;;
21202;SDS011;10759;51.982;9.232;2024-02-28T00:36:48;29.17;;;26.17;;
21202;SDS011;10759;51.982;9.232;2024-02-28T00:39:21;29.45;;;26.40;;
21202;SDS011;10759;51.982;9.232;2024-02-28T00:41:50;27.85;;;24.95;;
21202;SDS011;10759;51.982;9.232;2024-02-28T00:44:18;27.70;;;24.80;;
21202;SDS011;10759;51.982;9.232;2024-02-28T00:46:46;29.35;;;26.35;;
21202;SDS011;10759;51.982;9.232;2024-02-28T00:49:14;27.17;;;24.35;;
21202;SDS011;10759;51.982;9.232;2024-02-28T00:51:43;29.73;;;26.63;;
21202;SDS011;10759;51.982;9.232;2024-02-28T00:54:11;29.05;;;26.13;;
21202;SDS011;10759;51.982;9.232;2024-02-28T00:56:39;28.55;;;25.45;;
21202;SDS011;10759;51.982;9.232;2024-02-28T00:59:07;29.08;;;25.95;;
21202;SDS011;10759;51.982;9.232;2024-02-28T01:01:37;28.00;;;25.10;;
21202;SDS011;10759;51.982;9.232;2024-02-28T01:04:05;27.55;;;24.70;;
21202;SDS011;10759;51.982;9.232;2024-02-28T01:06:34;28.55;;;25.55;;
21202;SDS011;10759;51.982;9.232;2024-02-28T01:09:03;27.77;;;24.77;;
21202;SDS011;10759;51.982;9.232;2024-02-28T01:11:31;29.30;;;26.27;;
21202;SDS011;10759;51.982;9.232;2024-02-28T01:13:59;29.30;;;25.17;;
21202;SDS011;10759;51.982;9.232;2024-02-28T01:16:27;28.80;;;25.90;;
21202;SDS011;10759;51.982;9.232;2024-02-28T01:18:55;28.60;;;25.45;;
21202;SDS011;10759;51.982;9.232;2024-02-28T01:21:23;29.40;;;26.27;;
21202;SDS011;10759;51.982;9.232;2024-02-28T01:23:51;29.80;;;26.70;;
21202;SDS011;10759;51.982;9.232;2024-02-28T01:26:21;27.88;;;25.08;;
21202;SDS011;10759;51.982;9.232;2024-02-28T01:28:49;29.00;;;26.07;;
21202;SDS011;10759;51.982;9.232;2024-02-28T01:31:17;30.17;;;27.10;;
21202;SDS011;10759;51.982;9.232;2024-02-28T01:33:45;30.45;;;27.02;;
21202;SDS011;10759;51.982;9.232;2024-02-28T01:36:14;31.85;;;27.38;;
21202;SDS011;10759;51.982;9.232;2024-02-28T01:38:42;30.80;;;27.08;;
21202;SDS011;10759;51.982;9.232;2024-02-28T01:41:10;32.15;;;27.17;;
21202;SDS011;10759;51.982;9.232;2024-02-28T01:43:39;31.25;;;27.73;;
21202;SDS011;10759;51.982;9.232;2024-02-28T01:46:09;30.80;;;27.23;;
21202;SDS011;10759;51.982;9.232;2024-02-28T01:48:47;31.63;;;28.20;;
21202;SDS011;10759;51.982;9.232;2024-02-28T01:51:16;31.90;;;28.50;;
21202;SDS011;10759;51.982;9.232;2024-02-28T01:53:44;30.25;;;27.08;;
21202;SDS011;10759;51.982;9.232;2024-02-28T01:56:13;30.52;;;27.23;;
21202;SDS011;10759;51.982;9.232;2024-02-28T01:58:44;33.97;;;30.13;;
21202;SDS011;10759;51.982;9.232;2024-02-28T02:01:14;30.90;;;27.63;;
21202;SDS011;10759;51.982;9.232;2024-02-28T02:03:48;34.42;;;29.73;;
21202;SDS011;10759;51.982;9.232;2024-02-28T02:06:17;36.67;;;30.42;;
21202;SDS011;10759;51.982;9.232;2024-02-28T02:08:45;45.80;;;35.72;;
21202;SDS011;10759;51.982;9.232;2024-02-28T02:11:15;44.45;;;35.22;;
21202;SDS011;10759;51.982;9.232;2024-02-28T02:13:49;37.20;;;33.22;;
21202;SDS011;10759;51.982;9.232;2024-02-28T02:16:19;37.95;;;30.15;;
21202;SDS011;10759;51.982;9.232;2024-02-28T02:18:49;37.35;;;31.00;;
21202;SDS011;10759;51.982;9.232;2024-02-28T02:21:17;35.92;;;30.98;;
21202;SDS011;10759;51.982;9.232;2024-02-28T02:23:47;32.75;;;28.88;;
21202;SDS011;10759;51.982;9.232;2024-02-28T02:26:15;31.90;;;28.38;;
21202;SDS011;10759;51.982;9.232;2024-02-28T02:28:43;32.72;;;28.02;;
21202;SDS011;10759;51.982;9.232;2024-02-28T02:31:12;32.05;;;28.58;;
21202;SDS011;10759;51.982;9.232;2024-02-28T02:33:41;35.58;;;30.75;;
21202;SDS011;10759;51.982;9.232;2024-02-28T02:36:09;41.88;;;34.80;;
21202;SDS011;10759;51.982;9.232;2024-02-28T02:38:37;44.78;;;36.22;;
21202;SDS011;10759;51.982;9.232;2024-02-28T02:41:06;44.50;;;36.13;;
21202;SDS011;10759;51.982;9.232;2024-02-28T02:43:34;43.83;;;34.27;;
21202;SDS011;10759;51.982;9.232;2024-02-28T02:46:03;38.95;;;31.08;;
21202;SDS011;10759;51.982;9.232;2024-02-28T02:48:33;31.17;;;27.90;;
21202;SDS011;10759;51.982;9.232;2024-02-28T02:51:01;31.95;;;28.55;;
21202;SDS011;10759;51.982;9.232;2024-02-28T02:53:29;33.92;;;26.70;;
21202;SDS011;10759;51.982;9.232;2024-02-28T02:55:57;32.67;;;28.27;;
21202;SDS011;10759;51.982;9.232;2024-02-28T02:58:32;31.25;;;27.35;;
21202;SDS011;10759;51.982;9.232;2024-02-28T03:01:00;31.95;;;27.83;;
21202;SDS011;10759;51.982;9.232;2024-02-28T03:03:28;31.08;;;27.08;;
21202;SDS011;10759;51.982;9.232;2024-02-28T03:05:57;31.20;;;27.83;;
21202;SDS011;10759;51.982;9.232;2024-02-28T03:08:25;34.97;;;29.48;;
21202;SDS011;10759;51.982;9.232;2024-02-28T03:10:53;30.92;;;27.58;;
21202;SDS011;10759;51.982;9.232;2024-02-28T03:13:21;32.55;;;28.92;;
21202;SDS011;10759;51.982;9.232;2024-02-28T03:15:50;30.75;;;27.45;;
21202;SDS011;10759;51.982;9.232;2024-02-28T03:18:18;34.83;;;29.63;;
21202;SDS011;10759;51.982;9.232;2024-02-28T03:20:46;32.03;;;28.63;;
21202;SDS011;10759;51.982;9.232;2024-02-28T03:23:14;32.00;;;28.38;;
21202;SDS011;10759;51.982;9.232;2024-02-28T03:25:42;36.65;;;28.77;;
21202;SDS011;10759;51.982;9.232;2024-02-28T03:28:11;33.30;;;29.02;;
21202;SDS011;10759;51.982;9.232;2024-02-28T03:30:39;36.10;;;29.15;;
21202;SDS011;10759;51.982;9.232;2024-02-28T03:33:09;34.13;;;29.67;;
21202;SDS011;10759;51.982;9.232;2024-02-28T03:35:38;35.47;;;31.60;;
21202;SDS011;10759;51.982;9.232;2024-02-28T03:38:06;38.25;;;32.33;;
21202;SDS011;10759;51.982;9.232;2024-02-28T03:40:34;34.38;;;30.67;;
21202;SDS011;10759;51.982;9.232;2024-02-28T03:43:02;37.53;;;32.47;;
21202;SDS011;10759;51.982;9.232;2024-02-28T03:45:30;37.55;;;33.20;;
21202;SDS011;10759;51.982;9.232;2024-02-28T03:47:58;41.65;;;31.85;;
21202;SDS011;10759;51.982;9.232;2024-02-28T03:50:27;35.85;;;32.08;;
21202;SDS011;10759;51.982;9.232;2024-02-28T03:52:55;41.27;;;31.97;;
21202;SDS011;10759;51.982;9.232;2024-02-28T03:55:22;42.30;;;34.60;;
21202;SDS011;10759;51.982;9.232;2024-02-28T03:57:50;41.95;;;35.53;;
21202;SDS011;10759;51.982;9.232;2024-02-28T04:00:19;54.22;;;36.13;;
21202;SDS011;10759;51.982;9.232;2024-02-28T04:02:47;40.58;;;34.03;;
21202;SDS011;10759;51.982;9.232;2024-02-28T04:05:15;45.15;;;33.13;;
21202;SDS011;10759;51.982;9.232;2024-02-28T04:07:45;48.50;;;36.30;;
21202;SDS011;10759;51.982;9.232;2024-02-28T04:10:13;35.80;;;31.90;;
21202;SDS011;10759;51.982;9.232;2024-02-28T04:12:42;43.42;;;34.75;;
21202;SDS011;10759;51.982;9.232;2024-02-28T04:15:10;63.80;;;34.65;;
21202;SDS011;10759;51.982;9.232;2024-02-28T04:17:41;46.70;;;33.80;;
21202;SDS011;10759;51.982;9.232;2024-02-28T04:20:10;43.92;;;34.92;;
21202;SDS011;10759;51.982;9.232;2024-02-28T04:22:38;50.67;;;35.30;;
21202;SDS011;10759;51.982;9.232;2024-02-28T04:25:08;37.50;;;31.95;;
21202;SDS011;10759;51.982;9.232;2024-02-28T04:27:37;42.47;;;34.03;;
21202;SDS011;10759;51.982;9.232;2024-02-28T04:30:05;49.28;;;34.25;;
21202;SDS011;10759;51.982;9.232;2024-02-28T04:32:34;53.63;;;35.30;;
21202;SDS011;10759;51.982;9.232;2024-02-28T04:35:02;51.85;;;34.63;;
21202;SDS011;10759;51.982;9.232;2024-02-28T04:37:31;44.38;;;35.47;;
21202;SDS011;10759;51.982;9.232;2024-02-28T04:40:01;42.92;;;34.45;;
21202;SDS011;10759;51.982;9.232;2024-02-28T04:42:30;53.38;;;35.53;;
21202;SDS011;10759;51.982;9.232;2024-02-28T04:44:58;48.08;;;36.95;;
21202;SDS011;10759;51.982;9.232;2024-02-28T04:47:26;53.38;;;35.35;;
21202;SDS011;10759;51.982;9.232;2024-02-28T04:50:05;40.42;;;35.65;;
21202;SDS011;10759;51.982;9.232;2024-02-28T04:52:33;43.67;;;35.95;;
21202;SDS011;10759;51.982;9.232;2024-02-28T04:55:01;50.17;;;35.17;;
21202;SDS011;10759;51.982;9.232;2024-02-28T04:57:31;44.80;;;35.50;;
21202;SDS011;10759;51.982;9.232;2024-02-28T05:00:00;53.97;;;37.70;;
21202;SDS011;10759;51.982;9.232;2024-02-28T05:04:57;46.95;;;35.65;;
21202;SDS011;10759;51.982;9.232;2024-02-28T05:07:25;48.85;;;36.53;;
21202;SDS011;10759;51.982;9.232;2024-02-28T05:09:53;48.15;;;36.47;;
21202;SDS011;10759;51.982;9.232;2024-02-28T05:12:21;47.63;;;35.50;;
21202;SDS011;10759;51.982;9.232;2024-02-28T05:14:51;53.13;;;38.60;;
21202;SDS011;10759;51.982;9.232;2024-02-28T05:17:21;49.20;;;36.63;;
21202;SDS011;10759;51.982;9.232;2024-02-28T05:19:49;51.22;;;37.53;;
21202;SDS011;10759;51.982;9.232;2024-02-28T05:22:17;49.72;;;36.78;;
21202;SDS011;10759;51.982;9.232;2024-02-28T05:24:45;46.83;;;37.97;;
21202;SDS011;10759;51.982;9.232;2024-02-28T05:27:13;54.15;;;37.50;;
21202;SDS011;10759;51.982;9.232;2024-02-28T05:29:41;45.67;;;36.33;;
21202;SDS011;10759;51.982;9.232;2024-02-28T05:32:11;51.22;;;38.70;;
21202;SDS011;10759;51.982;9.232;2024-02-28T05:34:39;48.83;;;40.80;;
21202;SDS011;10759;51.982;9.232;2024-02-28T05:37:07;51.97;;;38.63;;
21202;SDS011;10759;51.982;9.232;2024-02-28T05:39:35;54.28;;;41.10;;
21202;SDS011;10759;51.982;9.232;2024-02-28T05:42:03;52.90;;;40.67;;
21202;SDS011;10759;51.982;9.232;2024-02-28T05:44:31;52.80;;;39.30;;
21202;SDS011;10759;51.982;9.232;2024-02-28T05:47:01;57.42;;;43.35;;
21202;SDS011;10759;51.982;9.232;2024-02-28T05:49:30;62.25;;;44.30;;
21202;SDS011;10759;51.982;9.232;2024-02-28T05:51:58;58.53;;;43.83;;
21202;SDS011;10759;51.982;9.232;2024-02-28T05:54:27;62.88;;;44.35;;
21202;SDS011;10759;51.982;9.232;2024-02-28T05:56:56;40.00;;;31.35;;
21202;SDS011;10759;51.982;9.232;2024-02-28T05:59:24;60.78;;;42.60;;
21202;SDS011;10759;51.982;9.232;2024-02-28T06:01:52;61.78;;;44.75;;
21202;SDS011;10759;51.982;9.232;2024-02-28T06:04:21;64.95;;;44.40;;
21202;SDS011;10759;51.982;9.232;2024-02-28T06:06:50;60.65;;;43.33;;
21202;SDS011;10759;51.982;9.232;2024-02-28T06:09:18;66.82;;;45.38;;
21202;SDS011;10759;51.982;9.232;2024-02-28T06:11:46;63.90;;;46.60;;
21202;SDS011;10759;51.982;9.232;2024-02-28T06:14:14;63.85;;;44.88;;
21202;SDS011;10759;51.982;9.232;2024-02-28T06:16:42;60.38;;;44.00;;
21202;SDS011;10759;51.982;9.232;2024-02-28T06:19:10;60.72;;;44.25;;
21202;SDS011;10759;51.982;9.232;2024-02-28T06:21:38;64.70;;;45.78;;
21202;SDS011;10759;51.982;9.232;2024-02-28T06:24:07;67.65;;;48.03;;
21202;SDS011;10759;51.982;9.232;2024-02-28T06:26:35;65.60;;;46.70;;
21202;SDS011;10759;51.982;9.232;2024-02-28T06:29:03;66.70;;;46.50;;
21202;SDS011;10759;51.982;9.232;2024-02-28T06:31:32;66.90;;;46.90;;
21202;SDS011;10759;51.982;9.232;2024-02-28T06:34:00;71.13;;;46.70;;
21202;SDS011;10759;51.982;9.232;2024-02-28T06:36:30;74.07;;;51.03;;
21202;SDS011;10759;51.982;9.232;2024-02-28T06:38:58;64.85;;;47.53;;
21202;SDS011;10759;51.982;9.232;2024-02-28T06:41:27;76.55;;;49.45;;
21202;SDS011;10759;51.982;9.232;2024-02-28T06:43:55;84.10;;;53.20;;
21202;SDS011;10759;51.982;9.232;2024-02-28T06:46:23;71.28;;;48.20;;
21202;SDS011;10759;51.982;9.232;2024-02-28T06:48:51;83.22;;;53.20;;
21202;SDS011;10759;51.982;9.232;2024-02-28T06:51:19;85.40;;;51.15;;
21202;SDS011;10759;51.982;9.232;2024-02-28T06:53:47;80.20;;;54.05;;
21202;SDS011;10759;51.982;9.232;2024-02-28T06:56:15;79.13;;;51.00;;
21202;SDS011;10759;51.982;9.232;2024-02-28T06:58:44;88.53;;;52.92;;
21202;SDS011;10759;51.982;9.232;2024-02-28T07:01:12;82.10;;;51.33;;
21202;SDS011;10759;51.982;9.232;2024-02-28T07:03:40;92.05;;;55.65;;
21202;SDS011;10759;51.982;9.232;2024-02-28T07:06:09;84.82;;;50.88;;
21202;SDS011;10759;51.982;9.232;2024-02-28T07:08:37;87.18;;;54.03;;
21202;SDS011;10759;51.982;9.232;2024-02-28T07:11:05;89.63;;;53.92;;
21202;SDS011;10759;51.982;9.232;2024-02-28T07:13:41;89.90;;;54.90;;
21202;SDS011;10759;51.982;9.232;2024-02-28T07:16:10;92.50;;;55.30;;
21202;SDS011;10759;51.982;9.232;2024-02-28T07:18:38;97.40;;;56.87;;
21202;SDS011;10759;51.982;9.232;2024-02-28T07:21:07;96.75;;;55.95;;
21202;SDS011;10759;51.982;9.232;2024-02-28T07:23:38;88.60;;;54.88;;
21202;SDS011;10759;51.982;9.232;2024-02-28T07:26:06;89.18;;;54.90;;
21202;SDS011;10759;51.982;9.232;2024-02-28T07:28:48;89.18;;;54.03;;
21202;SDS011;10759;51.982;9.232;2024-02-28T07:31:18;91.07;;;55.63;;
21202;SDS011;10759;51.982;9.232;2024-02-28T07:33:46;91.13;;;55.38;;
21202;SDS011;10759;51.982;9.232;2024-02-28T07:36:15;91.47;;;54.10;;
21202;SDS011;10759;51.982;9.232;2024-02-28T07:38:43;93.50;;;56.20;;
21202;SDS011;10759;51.982;9.232;2024-02-28T07:41:11;92.93;;;55.03;;
21202;SDS011;10759;51.982;9.232;2024-02-28T07:43:41;84.15;;;53.75;;
21202;SDS011;10759;51.982;9.232;2024-02-28T07:46:10;89.55;;;55.20;;
21202;SDS011;10759;51.982;9.232;2024-02-28T07:48:40;87.68;;;55.78;;
21202;SDS011;10759;51.982;9.232;2024-02-28T07:51:08;98.07;;;57.67;;
21202;SDS011;10759;51.982;9.232;2024-02-28T07:53:38;95.80;;;58.72;;
21202;SDS011;10759;51.982;9.232;2024-02-28T07:56:06;92.70;;;56.75;;
21202;SDS011;10759;51.982;9.232;2024-02-28T07:58:34;89.20;;;55.58;;
21202;SDS011;10759;51.982;9.232;2024-02-28T08:01:02;92.75;;;56.58;;
21202;SDS011;10759;51.982;9.232;2024-02-28T08:03:31;91.00;;;56.75;;
21202;SDS011;10759;51.982;9.232;2024-02-28T08:06:00;91.93;;;57.38;;
21202;SDS011;10759;51.982;9.232;2024-02-28T08:08:28;88.32;;;56.17;;
21202;SDS011;10759;51.982;9.232;2024-02-28T08:10:56;81.97;;;52.58;;
21202;SDS011;10759;51.982;9.232;2024-02-28T08:13:24;89.60;;;55.97;;
21202;SDS011;10759;51.982;9.232;2024-02-28T08:18:22;85.13;;;53.95;;
21202;SDS011;10759;51.982;9.232;2024-02-28T08:20:50;78.28;;;54.28;;
21202;SDS011;10759;51.982;9.232;2024-02-28T08:23:21;83.28;;;53.92;;
21202;SDS011;10759;51.982;9.232;2024-02-28T08:25:51;84.68;;;53.35;;
21202;SDS011;10759;51.982;9.232;2024-02-28T08:28:19;77.82;;;54.17;;
21202;SDS011;10759;51.982;9.232;2024-02-28T08:30:47;83.57;;;54.30;;
21202;SDS011;10759;51.982;9.232;2024-02-28T08:33:17;85.03;;;55.25;;
21202;SDS011;10759;51.982;9.232;2024-02-28T08:35:50;83.63;;;54.75;;
21202;SDS011;10759;51.982;9.232;2024-02-28T08:38:18;83.15;;;51.70;;
21202;SDS011;10759;51.982;9.232;2024-02-28T08:40:48;75.93;;;52.05;;
21202;SDS011;10759;51.982;9.232;2024-02-28T08:43:15;85.75;;;54.67;;
21202;SDS011;10759;51.982;9.232;2024-02-28T08:45:43;83.78;;;53.53;;
21202;SDS011;10759;51.982;9.232;2024-02-28T08:48:11;83.05;;;54.50;;
21202;SDS011;10759;51.982;9.232;2024-02-28T08:50:40;81.93;;;53.22;;
21202;SDS011;10759;51.982;9.232;2024-02-28T08:53:08;76.03;;;51.72;;
21202;SDS011;10759;51.982;9.232;2024-02-28T08:55:35;79.07;;;52.20;;
21202;SDS011;10759;51.982;9.232;2024-02-28T08:58:05;75.47;;;50.95;;
21202;SDS011;10759;51.982;9.232;2024-02-28T09:00:33;71.90;;;50.38;;
21202;SDS011;10759;51.982;9.232;2024-02-28T09:03:01;71.90;;;49.67;;
21202;SDS011;10759;51.982;9.232;2024-02-28T09:05:30;83.10;;;54.13;;
21202;SDS011;10759;51.982;9.232;2024-02-28T09:07:58;78.80;;;52.85;;
21202;SDS011;10759;51.982;9.232;2024-02-28T09:10:27;80.63;;;53.15;;
21202;SDS011;10759;51.982;9.232;2024-02-28T09:12:57;75.38;;;52.20;;
21202;SDS011;10759;51.982;9.232;2024-02-28T09:15:27;82.57;;;57.72;;
21202;SDS011;10759;51.982;9.232;2024-02-28T09:17:55;74.20;;;52.15;;
21202;SDS011;10759;51.982;9.232;2024-02-28T09:20:23;70.43;;;51.63;;
21202;SDS011;10759;51.982;9.232;2024-02-28T09:22:51;74.72;;;51.05;;
21202;SDS011;10759;51.982;9.232;2024-02-28T09:25:19;71.22;;;49.30;;
21202;SDS011;10759;51.982;9.232;2024-02-28T09:27:49;71.28;;;49.00;;
21202;SDS011;10759;51.982;9.232;2024-02-28T09:30:17;71.63;;;47.15;;
21202;SDS011;10759;51.982;9.232;2024-02-28T09:32:47;70.80;;;50.22;;
21202;SDS011;10759;51.982;9.232;2024-02-28T09:35:15;73.32;;;51.97;;
21202;SDS011;10759;51.982;9.232;2024-02-28T09:37:43;71.30;;;50.67;;
21202;SDS011;10759;51.982;9.232;2024-02-28T09:40:11;75.88;;;52.42;;
21202;SDS011;10759;51.982;9.232;2024-02-28T09:42:40;69.18;;;49.92;;
21202;SDS011;10759;51.982;9.232;2024-02-28T09:45:09;71.57;;;51.28;;
21202;SDS011;10759;51.982;9.232;2024-02-28T09:47:37;73.40;;;52.75;;
21202;SDS011;10759;51.982;9.232;2024-02-28T09:50:08;73.35;;;50.75;;
21202;SDS011;10759;51.982;9.232;2024-02-28T09:55:05;72.68;;;51.90;;
21202;SDS011;10759;51.982;9.232;2024-02-28T09:57:33;69.18;;;49.08;;
21202;SDS011;10759;51.982;9.232;2024-02-28T10:00:05;61.92;;;44.53;;
21202;SDS011;10759;51.982;9.232;2024-02-28T10:02:36;65.82;;;44.45;;
21202;SDS011;10759;51.982;9.232;2024-02-28T10:05:08;64.25;;;43.30;;
21202;SDS011;10759;51.982;9.232;2024-02-28T10:07:36;58.05;;;41.42;;
21202;SDS011;10759;51.982;9.232;2024-02-28T10:10:05;62.65;;;41.17;;
21202;SDS011;10759;51.982;9.232;2024-02-28T10:12:36;66.72;;;41.42;;
21202;SDS011;10759;51.982;9.232;2024-02-28T10:15:08;65.30;;;43.22;;
21202;SDS011;10759;51.982;9.232;2024-02-28T10:17:37;60.58;;;41.53;;
21202;SDS011;10759;51.982;9.232;2024-02-28T10:20:05;61.83;;;40.65;;
21202;SDS011;10759;51.982;9.232;2024-02-28T10:22:37;61.00;;;41.08;;
21202;SDS011;10759;51.982;9.232;2024-02-28T10:25:05;58.83;;;42.28;;
21202;SDS011;10759;51.982;9.232;2024-02-28T10:27:34;68.72;;;44.75;;
21202;SDS011;10759;51.982;9.232;2024-02-28T10:30:03;63.40;;;44.13;;
21202;SDS011;10759;51.982;9.232;2024-02-28T10:32:32;60.75;;;41.42;;
21202;SDS011;10759;51.982;9.232;2024-02-28T10:35:03;63.95;;;42.20;;
21202;SDS011;10759;51.982;9.232;2024-02-28T10:37:40;60.65;;;40.85;;
21202;SDS011;10759;51.982;9.232;2024-02-28T10:40:08;61.87;;;43.47;;
21202;SDS011;10759;51.982;9.232;2024-02-28T10:42:37;54.63;;;39.17;;
21202;SDS011;10759;51.982;9.232;2024-02-28T10:45:09;57.40;;;38.65;;
21202;SDS011;10759;51.982;9.232;2024-02-28T10:47:55;54.95;;;36.40;;
21202;SDS011;10759;51.982;9.232;2024-02-28T10:50:24;58.05;;;39.35;;
21202;SDS011;10759;51.982;9.232;2024-02-28T10:52:53;57.53;;;37.30;;
21202;SDS011;10759;51.982;9.232;2024-02-28T10:55:27;61.40;;;41.00;;
21202;SDS011;10759;51.982;9.232;2024-02-28T10:58:01;66.88;;;41.13;;
21202;SDS011;10759;51.982;9.232;2024-02-28T11:02:59;60.50;;;41.00;;
21202;SDS011;10759;51.982;9.232;2024-02-28T11:08:07;60.30;;;40.17;;
21202;SDS011;10759;51.982;9.232;2024-02-28T11:10:40;59.83;;;40.97;;
21202;SDS011;10759;51.982;9.232;2024-02-28T11:13:08;54.20;;;36.85;;
21202;SDS011;10759;51.982;9.232;2024-02-28T11:15:37;56.67;;;39.75;;
21202;SDS011;10759;51.982;9.232;2024-02-28T11:18:09;56.47;;;37.58;;
21202;SDS011;10759;51.982;9.232;2024-02-28T11:20:38;67.25;;;41.22;;
21202;SDS011;10759;51.982;9.232;2024-02-28T11:23:07;61.65;;;39.63;;
21202;SDS011;10759;51.982;9.232;2024-02-28T11:25:36;64.28;;;40.88;;
21202;SDS011;10759;51.982;9.232;2024-02-28T11:28:05;67.32;;;41.72;;
21202;SDS011;10759;51.982;9.232;2024-02-28T11:30:33;66.43;;;43.78;;
21202;SDS011;10759;51.982;9.232;2024-02-28T11:33:01;65.72;;;41.25;;
21202;SDS011;10759;51.982;9.232;2024-02-28T11:35:32;61.45;;;40.45;;
21202;SDS011;10759;51.982;9.232;2024-02-28T11:38:00;59.10;;;39.25;;
21202;SDS011;10759;51.982;9.232;2024-02-28T11:40:29;57.00;;;38.35;;
21202;SDS011;10759;51.982;9.232;2024-02-28T11:42:57;54.17;;;37.50;;
21202;SDS011;10759;51.982;9.232;2024-02-28T11:45:26;54.22;;;37.28;;
21202;SDS011;10759;51.982;9.232;2024-02-28T11:47:54;54.08;;;37.22;;
21202;SDS011;10759;51.982;9.232;2024-02-28T11:50:22;52.28;;;36.85;;
21202;SDS011;10759;51.982;9.232;2024-02-28T11:52:52;50.38;;;37.22;;
21202;SDS011;10759;51.982;9.232;2024-02-28T11:55:21;51.58;;;37.10;;
21202;SDS011;10759;51.982;9.232;2024-02-28T11:57:53;47.58;;;35.60;;
21202;SDS011;10759;51.982;9.232;2024-02-28T12:00:20;52.55;;;37.80;;
21202;SDS011;10759;51.982;9.232;2024-02-28T12:02:49;55.70;;;37.90;;
21202;SDS011;10759;51.982;9.232;2024-02-28T12:05:19;53.38;;;38.67;;
21202;SDS011;10759;51.982;9.232;2024-02-28T12:07:47;54.85;;;39.58;;
21202;SDS011;10759;51.982;9.232;2024-02-28T12:10:15;53.03;;;38.38;;
21202;SDS011;10759;51.982;9.232;2024-02-28T12:12:43;49.40;;;36.45;;
21202;SDS011;10759;51.982;9.232;2024-02-28T12:15:14;52.17;;;37.67;;
21202;SDS011;10759;51.982;9.232;2024-02-28T12:17:42;47.00;;;37.03;;
21202;SDS011;10759;51.982;9.232;2024-02-28T12:20:11;52.88;;;37.72;;
21202;SDS011;10759;51.982;9.232;2024-02-28T12:22:38;47.47;;;35.92;;
21202;SDS011;10759;51.982;9.232;2024-02-28T12:25:06;45.63;;;34.92;;
21202;SDS011;10759;51.982;9.232;2024-02-28T12:27:35;46.50;;;35.27;;
21202;SDS011;10759;51.982;9.232;2024-02-28T12:30:03;51.35;;;37.85;;
21202;SDS011;10759;51.982;9.232;2024-02-28T12:32:34;51.28;;;37.75;;
21202;SDS011;10759;51.982;9.232;2024-02-28T12:35:02;50.40;;;36.30;;
21202;SDS011;10759;51.982;9.232;2024-02-28T12:37:30;50.47;;;37.92;;
21202;SDS011;10759;51.982;9.232;2024-02-28T12:39:58;52.30;;;37.78;;
21202;SDS011;10759;51.982;9.232;2024-02-28T12:42:26;49.17;;;36.40;;
21202;SDS011;10759;51.982;9.232;2024-02-28T12:44:54;52.42;;;38.10;;
21202;SDS011;10759;51.982;9.232;2024-02-28T12:47:22;53.55;;;38.47;;
21202;SDS011;10759;51.982;9.232;2024-02-28T12:49:52;50.75;;;37.05;;
21202;SDS011;10759;51.982;9.232;2024-02-28T12:54:48;48.60;;;36.92;;
21202;SDS011;10759;51.982;9.232;2024-02-28T12:57:16;49.70;;;37.53;;
21202;SDS011;10759;51.982;9.232;2024-02-28T12:59:45;47.78;;;36.88;;
21202;SDS011;10759;51.982;9.232;2024-02-28T13:02:17;47.92;;;36.20;;
21202;SDS011;10759;51.982;9.232;2024-02-28T13:04:46;51.78;;;37.85;;
21202;SDS011;10759;51.982;9.232;2024-02-28T13:07:16;50.15;;;37.90;;
21202;SDS011;10759;51.982;9.232;2024-02-28T13:09:46;52.97;;;37.88;;
21202;SDS011;10759;51.982;9.232;2024-02-28T13:12:14;49.58;;;38.22;;
21202;SDS011;10759;51.982;9.232;2024-02-28T13:14:42;51.00;;;38.78;;
21202;SDS011;10759;51.982;9.232;2024-02-28T13:17:10;49.83;;;38.00;;
21202;SDS011;10759;51.982;9.232;2024-02-28T13:19:38;46.30;;;36.25;;
21202;SDS011;10759;51.982;9.232;2024-02-28T13:22:06;53.78;;;39.05;;
21202;SDS011;10759;51.982;9.232;2024-02-28T13:24:35;49.28;;;38.78;;
21202;SDS011;10759;51.982;9.232;2024-02-28T13:27:03;52.37;;;39.23;;
21202;SDS011;10759;51.982;9.232;2024-02-28T13:29:31;55.15;;;39.58;;
21202;SDS011;10759;51.982;9.232;2024-02-28T13:31:59;53.20;;;40.15;;
21202;SDS011;10759;51.982;9.232;2024-02-28T13:34:27;53.42;;;39.58;;
21202;SDS011;10759;51.982;9.232;2024-02-28T13:36:56;53.30;;;40.42;;
21202;SDS011;10759;51.982;9.232;2024-02-28T13:39:25;50.60;;;37.83;;
21202;SDS011;10759;51.982;9.232;2024-02-28T13:41:55;48.35;;;38.17;;
21202;SDS011;10759;51.982;9.232;2024-02-28T13:44:23;55.20;;;40.65;;
21202;SDS011;10759;51.982;9.232;2024-02-28T13:46:51;41.80;;;33.05;;
21202;SDS011;10759;51.982;9.232;2024-02-28T13:49:19;47.30;;;35.83;;
21202;SDS011;10759;51.982;9.232;2024-02-28T13:51:47;40.90;;;33.03;;
21202;SDS011;10759;51.982;9.232;2024-02-28T13:54:16;41.00;;;33.28;;
21202;SDS011;10759;51.982;9.232;2024-02-28T13:56:44;44.40;;;33.55;;
21202;SDS011;10759;51.982;9.232;2024-02-28T13:59:13;40.88;;;31.30;;
21202;SDS011;10759;51.982;9.232;2024-02-28T14:01:41;41.90;;;31.77;;
21202;SDS011;10759;51.982;9.232;2024-02-28T14:04:09;38.78;;;29.88;;
21202;SDS011;10759;51.982;9.232;2024-02-28T14:06:37;37.60;;;29.88;;
21202;SDS011;10759;51.982;9.232;2024-02-28T14:09:05;40.63;;;31.15;;
21202;SDS011;10759;51.982;9.232;2024-02-28T14:11:33;39.70;;;30.75;;
21202;SDS011;10759;51.982;9.232;2024-02-28T14:14:01;36.15;;;30.55;;
21202;SDS011;10759;51.982;9.232;2024-02-28T14:16:31;37.95;;;30.88;;
21202;SDS011;10759;51.982;9.232;2024-02-28T14:18:59;43.65;;;31.50;;
21202;SDS011;10759;51.982;9.232;2024-02-28T14:21:27;39.15;;;30.38;;
21202;SDS011;10759;51.982;9.232;2024-02-28T14:23:55;39.00;;;30.17;;
21202;SDS011;10759;51.982;9.232;2024-02-28T14:26:23;39.63;;;29.10;;
21202;SDS011;10759;51.982;9.232;2024-02-28T14:28:51;36.92;;;28.98;;
21202;SDS011;10759;51.982;9.232;2024-02-28T14:31:21;40.20;;;30.25;;
21202;SDS011;10759;51.982;9.232;2024-02-28T14:33:51;40.38;;;30.23;;
21202;SDS011;10759;51.982;9.232;2024-02-28T14:36:21;36.95;;;29.80;;
21202;SDS011;10759;51.982;9.232;2024-02-28T14:38:49;37.30;;;29.45;;
21202;SDS011;10759;51.982;9.232;2024-02-28T14:41:17;37.35;;;30.00;;
21202;SDS011;10759;51.982;9.232;2024-02-28T14:43:45;35.83;;;27.60;;
21202;SDS011;10759;51.982;9.232;2024-02-28T14:46:13;34.97;;;26.52;;